sensor_id;sensor_type;location;lat;lon;timestamp;temperature;humidity
35445;DHT22;21562;49.476;6.086;2024-03-22T00:01:46;15.40;1.00
35445;DHT22;21562;49.476;6.086;2024-03-22T00:04:12;15.60;1.00
35445;DHT22;21562;49.476;6.086;2024-03-22T00:06:38;15.60;1.00
35445;DHT22;21562;49.476;6.086;2024-03-22T00:09:04;15.70;1.00
35445;DHT22;21562;49.476;6.086;2024-03-22T00:11:30;15.70;1.00
35445;DHT22;21562;49.476;6.086;2024-03-22T00:13:56;15.80;1.00
35445;DHT22;21562;49.476;6.086;2024-03-22T00:16:22;15.90;1.00
35445;DHT22;21562;49.476;6.086;2024-03-22T00:18:48;15.90;1.00
35445;DHT22;21562;49.476;6.086;2024-03-22T00:21:13;15.90;1.00
35445;DHT22;21562;49.476;6.086;2024-03-22T00:23:39;15.90;1.00
35445;DHT22;21562;49.476;6.086;2024-03-22T00:26:05;15.90;1.00
35445;DHT22;21562;49.476;6.086;2024-03-22T00:28:31;15.80;1.00
35445;DHT22;21562;49.476;6.086;2024-03-22T00:30:56;15.50;1.00
35445;DHT22;21562;49.476;6.086;2024-03-22T00:33:22;15.10;1.00
35445;DHT22;21562;49.476;6.086;2024-03-22T00:35:48;14.80;1.00
35445;DHT22;21562;49.476;6.086;2024-03-22T00:38:13;14.60;1.00
35445;DHT22;21562;49.476;6.086;2024-03-22T00:40:39;14.70;1.00
35445;DHT22;21562;49.476;6.086;2024-03-22T00:43:06;14.80;1.00
35445;DHT22;21562;49.476;6.086;2024-03-22T00:45:32;14.90;1.00
35445;DHT22;21562;49.476;6.086;2024-03-22T00:47:57;15.00;1.00
35445;DHT22;21562;49.476;6.086;2024-03-22T00:50:23;15.10;1.00
35445;DHT22;21562;49.476;6.086;2024-03-22T00:52:50;15.20;1.00
35445;DHT22;21562;49.476;6.086;2024-03-22T00:55:16;15.40;1.00
35445;DHT22;21562;49.476;6.086;2024-03-22T00:57:41;15.30;1.00
35445;DHT22;21562;49.476;6.086;2024-03-22T01:00:08;15.00;1.00
35445;DHT22;21562;49.476;6.086;2024-03-22T01:02:33;14.70;1.00
35445;DHT22;21562;49.476;6.086;2024-03-22T01:04:59;14.70;1.00
35445;DHT22;21562;49.476;6.086;2024-03-22T01:07:25;14.70;1.00
35445;DHT22;21562;49.476;6.086;2024-03-22T01:09:50;14.80;1.00
35445;DHT22;21562;49.476;6.086;2024-03-22T01:12:16;14.90;1.00
35445;DHT22;21562;49.476;6.086;2024-03-22T01:14:42;15.00;1.00
35445;DHT22;21562;49.476;6.086;2024-03-22T01:17:07;15.10;1.00
35445;DHT22;21562;49.476;6.086;2024-03-22T01:19:33;15.10;1.00
35445;DHT22;21562;49.476;6.086;2024-03-22T01:21:59;14.90;1.00
35445;DHT22;21562;49.476;6.086;2024-03-22T01:24:24;14.60;1.00
35445;DHT22;21562;49.476;6.086;2024-03-22T01:26:50;14.30;1.00
35445;DHT22;21562;49.476;6.086;2024-03-22T01:29:16;14.30;1.00
35445;DHT22;21562;49.476;6.086;2024-03-22T01:31:41;14.40;1.00
35445;DHT22;21562;49.476;6.086;2024-03-22T01:34:08;14.60;1.00
35445;DHT22;21562;49.476;6.086;2024-03-22T01:36:33;14.80;1.00
35445;DHT22;21562;49.476;6.086;2024-03-22T01:38:59;14.90;1.00
35445;DHT22;21562;49.476;6.086;2024-03-22T01:41:25;14.60;1.00
35445;DHT22;21562;49.476;6.086;2024-03-22T01:43:51;14.50;1.00
35445;DHT22;21562;49.476;6.086;2024-03-22T01:46:16;13.80;1.00
35445;DHT22;21562;49.476;6.086;2024-03-22T01:48:42;13.60;11.30
35445;DHT22;21562;49.476;6.086;2024-03-22T01:51:08;13.60;12.40
35445;DHT22;21562;49.476;6.086;2024-03-22T01:53:35;13.40;21.60
35445;DHT22;21562;49.476;6.086;2024-03-22T01:56:02;13.40;24.10
35445;DHT22;21562;49.476;6.086;2024-03-22T01:58:27;13.70;20.80
35445;DHT22;21562;49.476;6.086;2024-03-22T02:00:54;14.10;13.80
35445;DHT22;21562;49.476;6.086;2024-03-22T02:03:20;14.40;4.90
35445;DHT22;21562;49.476;6.086;2024-03-22T02:05:46;14.60;1.00
35445;DHT22;21562;49.476;6.086;2024-03-22T02:08:11;14.80;1.00
35445;DHT22;21562;49.476;6.086;2024-03-22T02:10:37;14.50;1.00
35445;DHT22;21562;49.476;6.086;2024-03-22T02:13:03;13.90;2.60
35445;DHT22;21562;49.476;6.086;2024-03-22T02:15:28;13.50;21.30
35445;DHT22;21562;49.476;6.086;2024-03-22T02:17:55;13.40;34.40
35445;DHT22;21562;49.476;6.086;2024-03-22T02:20:21;13.20;41.50
35445;DHT22;21562;49.476;6.086;2024-03-22T02:22:46;13.00;50.70
35445;DHT22;21562;49.476;6.086;2024-03-22T02:25:12;12.90;57.80
35445;DHT22;21562;49.476;6.086;2024-03-22T02:27:38;12.60;77.90
35445;DHT22;21562;49.476;6.086;2024-03-22T02:30:05;12.60;89.30
35445;DHT22;21562;49.476;6.086;2024-03-22T02:32:30;12.60;96.40
35445;DHT22;21562;49.476;6.086;2024-03-22T02:34:56;12.80;76.70
35445;DHT22;21562;49.476;6.086;2024-03-22T02:37:22;12.90;62.60
35445;DHT22;21562;49.476;6.086;2024-03-22T02:39:47;13.10;55.80
35445;DHT22;21562;49.476;6.086;2024-03-22T02:42:13;13.00;60.90
35445;DHT22;21562;49.476;6.086;2024-03-22T02:44:39;12.90;63.90
35445;DHT22;21562;49.476;6.086;2024-03-22T02:47:09;12.80;79.90
35445;DHT22;21562;49.476;6.086;2024-03-22T02:49:35;12.80;84.40
35445;DHT22;21562;49.476;6.086;2024-03-22T02:52:01;12.70;92.70
35445;DHT22;21562;49.476;6.086;2024-03-22T02:54:26;12.80;89.20
35445;DHT22;21562;49.476;6.086;2024-03-22T02:56:52;12.80;83.50
35445;DHT22;21562;49.476;6.086;2024-03-22T02:59:18;13.00;58.40
35445;DHT22;21562;49.476;6.086;2024-03-22T03:01:44;13.10;47.70
35445;DHT22;21562;49.476;6.086;2024-03-22T03:04:09;13.00;53.40
35445;DHT22;21562;49.476;6.086;2024-03-22T03:06:35;13.20;44.40
35445;DHT22;21562;49.476;6.086;2024-03-22T03:09:00;13.40;35.10
35445;DHT22;21562;49.476;6.086;2024-03-22T03:11:26;13.50;31.40
35445;DHT22;21562;49.476;6.086;2024-03-22T03:13:52;13.50;27.40
35445;DHT22;21562;49.476;6.086;2024-03-22T03:16:18;13.50;24.40
35445;DHT22;21562;49.476;6.086;2024-03-22T03:18:43;13.70;18.50
35445;DHT22;21562;49.476;6.086;2024-03-22T03:21:09;13.70;21.40
35445;DHT22;21562;49.476;6.086;2024-03-22T03:23:35;13.80;23.90
35445;DHT22;21562;49.476;6.086;2024-03-22T03:26:00;14.00;18.50
35445;DHT22;21562;49.476;6.086;2024-03-22T03:28:26;14.30;8.00
35445;DHT22;21562;49.476;6.086;2024-03-22T03:30:53;14.50;1.00
35445;DHT22;21562;49.476;6.086;2024-03-22T03:33:18;14.70;1.00
35445;DHT22;21562;49.476;6.086;2024-03-22T03:35:47;14.80;1.00
35445;DHT22;21562;49.476;6.086;2024-03-22T03:38:13;14.60;1.00
35445;DHT22;21562;49.476;6.086;2024-03-22T03:40:39;14.70;1.00
35445;DHT22;21562;49.476;6.086;2024-03-22T03:43:04;14.80;1.00
35445;DHT22;21562;49.476;6.086;2024-03-22T03:45:30;15.00;1.00
35445;DHT22;21562;49.476;6.086;2024-03-22T03:47:56;15.10;1.00
35445;DHT22;21562;49.476;6.086;2024-03-22T03:50:22;15.10;1.00
35445;DHT22;21562;49.476;6.086;2024-03-22T03:52:47;15.20;1.00
35445;DHT22;21562;49.476;6.086;2024-03-22T03:55:13;15.20;1.00
35445;DHT22;21562;49.476;6.086;2024-03-22T03:57:39;15.30;1.00
35445;DHT22;21562;49.476;6.086;2024-03-22T04:00:05;15.00;1.00
35445;DHT22;21562;49.476;6.086;2024-03-22T04:02:31;14.60;1.00
35445;DHT22;21562;49.476;6.086;2024-03-22T04:04:57;14.50;1.00
35445;DHT22;21562;49.476;6.086;2024-03-22T04:07:23;14.40;1.00
35445;DHT22;21562;49.476;6.086;2024-03-22T04:09:48;14.60;1.00
35445;DHT22;21562;49.476;6.086;2024-03-22T04:12:14;14.70;1.00
35445;DHT22;21562;49.476;6.086;2024-03-22T04:14:40;14.80;1.00
35445;DHT22;21562;49.476;6.086;2024-03-22T04:17:05;14.80;1.00
35445;DHT22;21562;49.476;6.086;2024-03-22T04:19:31;14.70;1.00
35445;DHT22;21562;49.476;6.086;2024-03-22T04:21:57;14.70;1.00
35445;DHT22;21562;49.476;6.086;2024-03-22T04:24:22;14.70;1.00
35445;DHT22;21562;49.476;6.086;2024-03-22T04:26:48;14.70;1.00
35445;DHT22;21562;49.476;6.086;2024-03-22T04:29:14;14.60;1.00
35445;DHT22;21562;49.476;6.086;2024-03-22T04:31:39;14.50;1.00
35445;DHT22;21562;49.476;6.086;2024-03-22T04:34:05;14.40;1.00
35445;DHT22;21562;49.476;6.086;2024-03-22T04:36:33;14.20;1.00
35445;DHT22;21562;49.476;6.086;2024-03-22T04:38:59;14.00;1.00
35445;DHT22;21562;49.476;6.086;2024-03-22T04:41:24;13.60;4.80
35445;DHT22;21562;49.476;6.086;2024-03-22T04:43:50;13.20;24.30
35445;DHT22;21562;49.476;6.086;2024-03-22T04:46:16;12.90;37.20
35445;DHT22;21562;49.476;6.086;2024-03-22T04:48:41;12.70;47.20
35445;DHT22;21562;49.476;6.086;2024-03-22T04:51:07;12.70;46.30
35445;DHT22;21562;49.476;6.086;2024-03-22T04:53:33;12.80;41.60
35445;DHT22;21562;49.476;6.086;2024-03-22T04:55:58;12.90;40.60
35445;DHT22;21562;49.476;6.086;2024-03-22T04:58:24;12.80;39.80
35445;DHT22;21562;49.476;6.086;2024-03-22T05:00:56;13.00;36.50
35445;DHT22;21562;49.476;6.086;2024-03-22T05:03:22;13.10;34.70
35445;DHT22;21562;49.476;6.086;2024-03-22T05:05:49;13.10;30.50
35445;DHT22;21562;49.476;6.086;2024-03-22T05:08:15;13.20;26.40
35445;DHT22;21562;49.476;6.086;2024-03-22T05:10:41;13.20;27.30
35445;DHT22;21562;49.476;6.086;2024-03-22T05:13:07;13.30;25.40
35445;DHT22;21562;49.476;6.086;2024-03-22T05:15:33;13.40;24.50
35445;DHT22;21562;49.476;6.086;2024-03-22T05:17:59;13.40;26.40
35445;DHT22;21562;49.476;6.086;2024-03-22T05:20:25;13.40;21.30
35445;DHT22;21562;49.476;6.086;2024-03-22T05:22:51;13.40;25.70
35445;DHT22;21562;49.476;6.086;2024-03-22T05:25:17;13.50;25.40
35445;DHT22;21562;49.476;6.086;2024-03-22T05:27:42;13.60;20.60
35445;DHT22;21562;49.476;6.086;2024-03-22T05:30:12;13.80;11.70
35445;DHT22;21562;49.476;6.086;2024-03-22T05:32:41;13.90;12.70
35445;DHT22;21562;49.476;6.086;2024-03-22T05:35:07;13.70;15.60
35445;DHT22;21562;49.476;6.086;2024-03-22T05:37:33;13.80;13.40
35445;DHT22;21562;49.476;6.086;2024-03-22T05:40:00;13.70;14.60
35445;DHT22;21562;49.476;6.086;2024-03-22T05:42:26;13.50;18.80
35445;DHT22;21562;49.476;6.086;2024-03-22T05:44:51;13.60;14.70
35445;DHT22;21562;49.476;6.086;2024-03-22T05:47:18;13.60;21.00
35445;DHT22;21562;49.476;6.086;2024-03-22T05:49:45;13.50;18.50
35445;DHT22;21562;49.476;6.086;2024-03-22T05:52:10;13.70;16.60
35445;DHT22;21562;49.476;6.086;2024-03-22T05:54:37;13.50;23.30
35445;DHT22;21562;49.476;6.086;2024-03-22T05:57:03;13.40;28.20
35445;DHT22;21562;49.476;6.086;2024-03-22T05:59:30;13.40;29.20
35445;DHT22;21562;49.476;6.086;2024-03-22T06:01:56;13.40;31.60
35445;DHT22;21562;49.476;6.086;2024-03-22T06:04:22;13.50;31.80
35445;DHT22;21562;49.476;6.086;2024-03-22T06:06:49;13.70;25.60
35445;DHT22;21562;49.476;6.086;2024-03-22T06:09:15;13.90;21.20
35445;DHT22;21562;49.476;6.086;2024-03-22T06:11:50;13.90;14.30
35445;DHT22;21562;49.476;6.086;2024-03-22T06:14:15;13.80;19.30
35445;DHT22;21562;49.476;6.086;2024-03-22T06:16:41;13.70;24.20
35445;DHT22;21562;49.476;6.086;2024-03-22T06:19:07;13.70;22.60
35445;DHT22;21562;49.476;6.086;2024-03-22T06:21:32;13.70;23.00
35445;DHT22;21562;49.476;6.086;2024-03-22T06:23:58;13.80;16.10
35445;DHT22;21562;49.476;6.086;2024-03-22T06:26:24;13.80;23.60
35445;DHT22;21562;49.476;6.086;2024-03-22T06:28:49;14.10;14.80
35445;DHT22;21562;49.476;6.086;2024-03-22T06:31:15;14.30;5.70
35445;DHT22;21562;49.476;6.086;2024-03-22T06:33:41;14.00;12.50
35445;DHT22;21562;49.476;6.086;2024-03-22T06:36:07;13.90;19.50
35445;DHT22;21562;49.476;6.086;2024-03-22T06:38:33;13.90;18.60
35445;DHT22;21562;49.476;6.086;2024-03-22T06:40:58;14.00;16.30
35445;DHT22;21562;49.476;6.086;2024-03-22T06:43:24;14.10;10.20
35445;DHT22;21562;49.476;6.086;2024-03-22T06:45:50;13.90;21.70
35445;DHT22;21562;49.476;6.086;2024-03-22T06:48:16;13.80;19.90
35445;DHT22;21562;49.476;6.086;2024-03-22T06:50:42;13.80;22.20
35445;DHT22;21562;49.476;6.086;2024-03-22T06:53:08;13.80;15.30
35445;DHT22;21562;49.476;6.086;2024-03-22T06:55:36;13.80;20.20
35445;DHT22;21562;49.476;6.086;2024-03-22T06:58:01;13.80;15.50
35445;DHT22;21562;49.476;6.086;2024-03-22T07:00:28;14.00;15.80
35445;DHT22;21562;49.476;6.086;2024-03-22T07:02:53;14.10;1.00
35445;DHT22;21562;49.476;6.086;2024-03-22T07:05:21;14.30;1.00
35445;DHT22;21562;49.476;6.086;2024-03-22T07:07:47;14.20;1.00
35445;DHT22;21562;49.476;6.086;2024-03-22T07:10:13;14.10;1.20
35445;DHT22;21562;49.476;6.086;2024-03-22T07:12:39;14.30;1.00
35445;DHT22;21562;49.476;6.086;2024-03-22T07:15:05;14.30;1.00
35445;DHT22;21562;49.476;6.086;2024-03-22T07:17:31;14.10;1.00
35445;DHT22;21562;49.476;6.086;2024-03-22T07:19:57;14.10;1.00
35445;DHT22;21562;49.476;6.086;2024-03-22T07:22:23;14.20;1.00
35445;DHT22;21562;49.476;6.086;2024-03-22T07:24:48;14.20;1.00
35445;DHT22;21562;49.476;6.086;2024-03-22T07:27:15;14.40;1.00
35445;DHT22;21562;49.476;6.086;2024-03-22T07:29:44;14.40;1.00
35445;DHT22;21562;49.476;6.086;2024-03-22T07:32:10;14.30;1.00
35445;DHT22;21562;49.476;6.086;2024-03-22T07:34:36;14.30;1.00
35445;DHT22;21562;49.476;6.086;2024-03-22T07:37:01;14.20;1.00
35445;DHT22;21562;49.476;6.086;2024-03-22T07:39:27;14.20;1.00
35445;DHT22;21562;49.476;6.086;2024-03-22T07:41:53;14.50;1.00
35445;DHT22;21562;49.476;6.086;2024-03-22T07:44:18;14.50;1.00
35445;DHT22;21562;49.476;6.086;2024-03-22T07:46:49;14.60;1.00
35445;DHT22;21562;49.476;6.086;2024-03-22T07:49:15;14.70;1.00
35445;DHT22;21562;49.476;6.086;2024-03-22T07:51:41;14.70;1.00
35445;DHT22;21562;49.476;6.086;2024-03-22T07:54:06;14.80;1.00
35445;DHT22;21562;49.476;6.086;2024-03-22T07:56:32;14.70;1.00
35445;DHT22;21562;49.476;6.086;2024-03-22T07:58:58;14.50;1.00
35445;DHT22;21562;49.476;6.086;2024-03-22T08:01:24;14.50;1.00
35445;DHT22;21562;49.476;6.086;2024-03-22T08:03:51;14.70;1.00
35445;DHT22;21562;49.476;6.086;2024-03-22T08:06:16;14.80;1.00
35445;DHT22;21562;49.476;6.086;2024-03-22T08:08:42;14.60;1.00
35445;DHT22;21562;49.476;6.086;2024-03-22T08:11:08;15.20;99.90
35445;DHT22;21562;49.476;6.086;2024-03-22T08:13:34;16.50;43.70
35445;DHT22;21562;49.476;6.086;2024-03-22T08:16:00;16.60;6.90
35445;DHT22;21562;49.476;6.086;2024-03-22T08:18:26;16.10;1.00
35445;DHT22;21562;49.476;6.086;2024-03-22T08:20:52;16.50;1.00
35445;DHT22;21562;49.476;6.086;2024-03-22T08:23:17;16.30;1.00
35445;DHT22;21562;49.476;6.086;2024-03-22T08:25:46;15.30;1.00
35445;DHT22;21562;49.476;6.086;2024-03-22T08:28:11;14.80;1.00
35445;DHT22;21562;49.476;6.086;2024-03-22T08:30:39;14.50;1.00
35445;DHT22;21562;49.476;6.086;2024-03-22T08:33:05;14.60;1.00
35445;DHT22;21562;49.476;6.086;2024-03-22T08:35:31;14.60;1.00
35445;DHT22;21562;49.476;6.086;2024-03-22T08:37:57;14.60;1.00
35445;DHT22;21562;49.476;6.086;2024-03-22T08:40:24;14.70;1.00
35445;DHT22;21562;49.476;6.086;2024-03-22T08:42:50;14.60;1.00
35445;DHT22;21562;49.476;6.086;2024-03-22T08:45:15;14.60;1.00
35445;DHT22;21562;49.476;6.086;2024-03-22T08:47:42;14.90;1.00
35445;DHT22;21562;49.476;6.086;2024-03-22T08:50:08;15.20;1.00
35445;DHT22;21562;49.476;6.086;2024-03-22T08:52:34;15.50;1.00
35445;DHT22;21562;49.476;6.086;2024-03-22T08:55:01;16.90;1.00
35445;DHT22;21562;49.476;6.086;2024-03-22T08:57:27;16.70;1.00
35445;DHT22;21562;49.476;6.086;2024-03-22T08:59:53;16.80;1.00
35445;DHT22;21562;49.476;6.086;2024-03-22T09:02:18;16.30;1.00
35445;DHT22;21562;49.476;6.086;2024-03-22T09:04:45;15.70;1.00
35445;DHT22;21562;49.476;6.086;2024-03-22T09:07:12;15.50;1.00
35445;DHT22;21562;49.476;6.086;2024-03-22T09:09:37;15.70;1.00
35445;DHT22;21562;49.476;6.086;2024-03-22T09:12:03;15.70;1.00
35445;DHT22;21562;49.476;6.086;2024-03-22T09:14:29;15.50;1.00
35445;DHT22;21562;49.476;6.086;2024-03-22T09:16:55;15.40;1.00
35445;DHT22;21562;49.476;6.086;2024-03-22T09:19:20;15.40;1.00
35445;DHT22;21562;49.476;6.086;2024-03-22T09:21:46;15.30;1.00
35445;DHT22;21562;49.476;6.086;2024-03-22T09:24:13;15.60;1.00
35445;DHT22;21562;49.476;6.086;2024-03-22T09:26:39;16.10;1.00
35445;DHT22;21562;49.476;6.086;2024-03-22T09:29:05;16.90;22.80
35445;DHT22;21562;49.476;6.086;2024-03-22T09:31:30;16.90;1.00
35445;DHT22;21562;49.476;6.086;2024-03-22T09:33:58;17.20;1.00
35445;DHT22;21562;49.476;6.086;2024-03-22T09:36:23;17.10;16.40
35445;DHT22;21562;49.476;6.086;2024-03-22T09:38:50;17.50;1.00
35445;DHT22;21562;49.476;6.086;2024-03-22T09:41:19;17.70;1.00
35445;DHT22;21562;49.476;6.086;2024-03-22T09:43:49;17.50;1.00
35445;DHT22;21562;49.476;6.086;2024-03-22T09:46:18;17.70;1.00
35445;DHT22;21562;49.476;6.086;2024-03-22T09:48:46;17.10;1.00
35445;DHT22;21562;49.476;6.086;2024-03-22T09:51:13;17.30;1.00
35445;DHT22;21562;49.476;6.086;2024-03-22T09:53:41;17.60;1.00
35445;DHT22;21562;49.476;6.086;2024-03-22T09:56:09;17.30;1.00
35445;DHT22;21562;49.476;6.086;2024-03-22T09:58:37;17.90;1.00
35445;DHT22;21562;49.476;6.086;2024-03-22T10:01:03;18.20;1.00
35445;DHT22;21562;49.476;6.086;2024-03-22T10:03:29;18.10;1.00
35445;DHT22;21562;49.476;6.086;2024-03-22T10:05:55;17.40;1.00
35445;DHT22;21562;49.476;6.086;2024-03-22T10:08:20;17.60;1.00
35445;DHT22;21562;49.476;6.086;2024-03-22T10:10:47;17.10;1.00
35445;DHT22;21562;49.476;6.086;2024-03-22T10:13:12;17.20;1.00
35445;DHT22;21562;49.476;6.086;2024-03-22T10:15:38;17.20;1.00
35445;DHT22;21562;49.476;6.086;2024-03-22T10:18:04;17.20;1.00
35445;DHT22;21562;49.476;6.086;2024-03-22T10:20:30;17.30;1.00
35445;DHT22;21562;49.476;6.086;2024-03-22T10:22:57;17.20;1.00
35445;DHT22;21562;49.476;6.086;2024-03-22T10:25:26;16.90;1.00
35445;DHT22;21562;49.476;6.086;2024-03-22T10:27:54;17.20;1.00
35445;DHT22;21562;49.476;6.086;2024-03-22T10:30:20;16.80;1.00
35445;DHT22;21562;49.476;6.086;2024-03-22T10:32:46;17.20;1.00
35445;DHT22;21562;49.476;6.086;2024-03-22T10:35:13;16.80;1.00
35445;DHT22;21562;49.476;6.086;2024-03-22T10:37:39;17.00;1.00
35445;DHT22;21562;49.476;6.086;2024-03-22T10:40:06;17.30;1.00
35445;DHT22;21562;49.476;6.086;2024-03-22T10:42:34;17.20;1.00
35445;DHT22;21562;49.476;6.086;2024-03-22T10:45:01;17.30;1.00
35445;DHT22;21562;49.476;6.086;2024-03-22T10:47:29;17.00;1.00
35445;DHT22;21562;49.476;6.086;2024-03-22T10:50:04;17.40;1.00
35445;DHT22;21562;49.476;6.086;2024-03-22T10:52:51;17.80;1.00
35445;DHT22;21562;49.476;6.086;2024-03-22T10:57:55;16.80;1.00
35445;DHT22;21562;49.476;6.086;2024-03-22T11:00:34;16.30;1.00
35445;DHT22;21562;49.476;6.086;2024-03-22T11:03:04;16.20;1.00
35445;DHT22;21562;49.476;6.086;2024-03-22T11:05:30;16.60;1.00
35445;DHT22;21562;49.476;6.086;2024-03-22T11:08:05;16.40;1.00
35445;DHT22;21562;49.476;6.086;2024-03-22T11:10:34;16.30;1.00
35445;DHT22;21562;49.476;6.086;2024-03-22T11:13:07;16.30;1.00
35445;DHT22;21562;49.476;6.086;2024-03-22T11:15:34;16.10;1.00
35445;DHT22;21562;49.476;6.086;2024-03-22T11:18:00;16.20;11.60
35445;DHT22;21562;49.476;6.086;2024-03-22T11:20:27;16.90;1.00
35445;DHT22;21562;49.476;6.086;2024-03-22T11:22:53;17.10;1.00
35445;DHT22;21562;49.476;6.086;2024-03-22T11:25:19;17.20;1.00
35445;DHT22;21562;49.476;6.086;2024-03-22T11:27:48;16.80;1.00
35445;DHT22;21562;49.476;6.086;2024-03-22T11:30:15;16.30;1.00
35445;DHT22;21562;49.476;6.086;2024-03-22T11:32:41;16.50;1.00
35445;DHT22;21562;49.476;6.086;2024-03-22T11:35:11;16.80;1.00
35445;DHT22;21562;49.476;6.086;2024-03-22T11:37:41;16.60;1.00
35445;DHT22;21562;49.476;6.086;2024-03-22T11:40:10;17.00;1.00
35445;DHT22;21562;49.476;6.086;2024-03-22T11:42:47;16.60;1.00
35445;DHT22;21562;49.476;6.086;2024-03-22T11:45:15;16.80;1.00
35445;DHT22;21562;49.476;6.086;2024-03-22T11:47:41;17.00;1.00
35445;DHT22;21562;49.476;6.086;2024-03-22T11:53:31;16.90;1.00
35445;DHT22;21562;49.476;6.086;2024-03-22T11:55:58;16.50;1.00
35445;DHT22;21562;49.476;6.086;2024-03-22T11:58:26;16.30;1.00
35445;DHT22;21562;49.476;6.086;2024-03-22T12:00:52;16.30;1.00
35445;DHT22;21562;49.476;6.086;2024-03-22T12:03:18;16.40;1.00
35445;DHT22;21562;49.476;6.086;2024-03-22T12:05:44;16.20;1.00
35445;DHT22;21562;49.476;6.086;2024-03-22T12:13:21;16.40;1.00
35445;DHT22;21562;49.476;6.086;2024-03-22T12:15:46;16.80;1.00
35445;DHT22;21562;49.476;6.086;2024-03-22T12:18:13;16.70;1.00
35445;DHT22;21562;49.476;6.086;2024-03-22T12:20:38;17.20;1.00
35445;DHT22;21562;49.476;6.086;2024-03-22T12:23:04;17.00;1.00
35445;DHT22;21562;49.476;6.086;2024-03-22T12:25:30;17.10;1.00
35445;DHT22;21562;49.476;6.086;2024-03-22T12:27:55;17.70;1.00
35445;DHT22;21562;49.476;6.086;2024-03-22T12:30:21;18.20;1.00
35445;DHT22;21562;49.476;6.086;2024-03-22T12:32:47;18.50;1.00
35445;DHT22;21562;49.476;6.086;2024-03-22T12:35:13;18.50;99.90
35445;DHT22;21562;49.476;6.086;2024-03-22T12:37:38;18.40;99.90
35445;DHT22;21562;49.476;6.086;2024-03-22T12:40:05;18.30;51.50
35445;DHT22;21562;49.476;6.086;2024-03-22T12:42:34;18.10;99.90
35445;DHT22;21562;49.476;6.086;2024-03-22T12:44:59;18.20;17.90
35445;DHT22;21562;49.476;6.086;2024-03-22T12:47:25;18.00;99.90
35445;DHT22;21562;49.476;6.086;2024-03-22T12:49:51;18.80;1.00
35445;DHT22;21562;49.476;6.086;2024-03-22T12:52:16;18.70;99.90
35445;DHT22;21562;49.476;6.086;2024-03-22T12:54:42;18.90;1.00
35445;DHT22;21562;49.476;6.086;2024-03-22T12:57:08;18.20;1.00
35445;DHT22;21562;49.476;6.086;2024-03-22T12:59:34;18.30;99.90
35445;DHT22;21562;49.476;6.086;2024-03-22T13:02:00;18.20;99.90
35445;DHT22;21562;49.476;6.086;2024-03-22T13:04:27;18.70;1.00
35445;DHT22;21562;49.476;6.086;2024-03-22T13:06:52;18.80;1.00
35445;DHT22;21562;49.476;6.086;2024-03-22T13:09:18;18.80;1.00
35445;DHT22;21562;49.476;6.086;2024-03-22T13:11:47;18.70;1.00
35445;DHT22;21562;49.476;6.086;2024-03-22T13:14:14;18.80;1.00
35445;DHT22;21562;49.476;6.086;2024-03-22T13:16:40;19.00;1.00
35445;DHT22;21562;49.476;6.086;2024-03-22T13:19:06;18.80;1.00
35445;DHT22;21562;49.476;6.086;2024-03-22T13:21:34;18.70;1.00
35445;DHT22;21562;49.476;6.086;2024-03-22T13:23:59;18.70;99.90
35445;DHT22;21562;49.476;6.086;2024-03-22T13:26:25;18.90;99.90
35445;DHT22;21562;49.476;6.086;2024-03-22T13:28:51;18.50;99.90
35445;DHT22;21562;49.476;6.086;2024-03-22T13:31:17;18.40;1.00
35445;DHT22;21562;49.476;6.086;2024-03-22T13:33:43;18.30;1.00
35445;DHT22;21562;49.476;6.086;2024-03-22T13:36:08;18.30;99.90
35445;DHT22;21562;49.476;6.086;2024-03-22T13:38:34;18.90;99.90
35445;DHT22;21562;49.476;6.086;2024-03-22T13:41:00;19.00;1.00
35445;DHT22;21562;49.476;6.086;2024-03-22T13:43:29;19.00;1.00
35445;DHT22;21562;49.476;6.086;2024-03-22T13:45:54;19.00;99.90
35445;DHT22;21562;49.476;6.086;2024-03-22T13:48:24;18.70;99.90
35445;DHT22;21562;49.476;6.086;2024-03-22T13:50:54;18.60;1.00
35445;DHT22;21562;49.476;6.086;2024-03-22T13:53:20;18.80;1.00
35445;DHT22;21562;49.476;6.086;2024-03-22T13:55:50;18.70;30.20
35445;DHT22;21562;49.476;6.086;2024-03-22T13:58:15;19.00;1.00
35445;DHT22;21562;49.476;6.086;2024-03-22T14:00:41;18.60;99.90
35445;DHT22;21562;49.476;6.086;2024-03-22T14:03:07;18.50;99.90
35445;DHT22;21562;49.476;6.086;2024-03-22T14:05:33;18.40;1.00
35445;DHT22;21562;49.476;6.086;2024-03-22T14:07:59;19.10;99.90
35445;DHT22;21562;49.476;6.086;2024-03-22T14:10:25;19.30;40.80
35445;DHT22;21562;49.476;6.086;2024-03-22T14:12:56;19.00;99.90
35445;DHT22;21562;49.476;6.086;2024-03-22T14:15:22;18.90;87.20
35445;DHT22;21562;49.476;6.086;2024-03-22T14:17:50;19.10;99.90
35445;DHT22;21562;49.476;6.086;2024-03-22T14:20:16;19.10;99.90
35445;DHT22;21562;49.476;6.086;2024-03-22T14:22:42;18.90;1.00
35445;DHT22;21562;49.476;6.086;2024-03-22T14:25:08;19.00;99.90
35445;DHT22;21562;49.476;6.086;2024-03-22T14:27:35;19.00;99.90
35445;DHT22;21562;49.476;6.086;2024-03-22T14:30:02;19.10;1.00
35445;DHT22;21562;49.476;6.086;2024-03-22T14:32:32;18.90;99.90
35445;DHT22;21562;49.476;6.086;2024-03-22T14:34:57;18.60;1.00
35445;DHT22;21562;49.476;6.086;2024-03-22T14:37:23;18.10;1.00
35445;DHT22;21562;49.476;6.086;2024-03-22T14:39:49;18.50;1.00
35445;DHT22;21562;49.476;6.086;2024-03-22T14:42:15;18.50;1.00
35445;DHT22;21562;49.476;6.086;2024-03-22T14:44:40;18.80;8.50
35445;DHT22;21562;49.476;6.086;2024-03-22T14:47:06;18.40;99.90
35445;DHT22;21562;49.476;6.086;2024-03-22T14:49:32;18.40;1.00
35445;DHT22;21562;49.476;6.086;2024-03-22T14:51:58;18.30;1.00
35445;DHT22;21562;49.476;6.086;2024-03-22T14:54:24;18.30;1.00
35445;DHT22;21562;49.476;6.086;2024-03-22T14:56:49;18.30;1.00
35445;DHT22;21562;49.476;6.086;2024-03-22T14:59:15;18.40;99.90
35445;DHT22;21562;49.476;6.086;2024-03-22T15:01:41;17.70;1.00
35445;DHT22;21562;49.476;6.086;2024-03-22T15:04:06;18.10;41.40
35445;DHT22;21562;49.476;6.086;2024-03-22T15:06:33;18.60;1.00
35445;DHT22;21562;49.476;6.086;2024-03-22T15:08:59;18.20;1.00
35445;DHT22;21562;49.476;6.086;2024-03-22T15:11:30;18.30;99.90
35445;DHT22;21562;49.476;6.086;2024-03-22T15:13:56;18.70;1.00
35445;DHT22;21562;49.476;6.086;2024-03-22T15:16:21;18.80;1.00
35445;DHT22;21562;49.476;6.086;2024-03-22T15:18:47;18.70;1.00
35445;DHT22;21562;49.476;6.086;2024-03-22T15:21:12;19.20;99.90
35445;DHT22;21562;49.476;6.086;2024-03-22T15:23:38;19.60;99.90
35445;DHT22;21562;49.476;6.086;2024-03-22T15:26:06;19.30;99.90
35445;DHT22;21562;49.476;6.086;2024-03-22T15:28:31;18.80;1.00
35445;DHT22;21562;49.476;6.086;2024-03-22T15:30:57;18.70;1.00
35445;DHT22;21562;49.476;6.086;2024-03-22T15:33:23;18.60;1.00
35445;DHT22;21562;49.476;6.086;2024-03-22T15:35:49;18.40;1.00
35445;DHT22;21562;49.476;6.086;2024-03-22T15:38:16;18.50;1.00
35445;DHT22;21562;49.476;6.086;2024-03-22T15:40:42;19.00;26.40
35445;DHT22;21562;49.476;6.086;2024-03-22T15:43:08;19.20;99.90
35445;DHT22;21562;49.476;6.086;2024-03-22T15:45:36;19.30;1.00